Airfield :
LOGIN :

Register | Disclaimer

   EN    FR    IT 

 










Legend :    VFR   Marginal VFR   IFR   Intensive IFR   Very Intensive IFR
Visi :
Ceiling :
>= 8 km
>= 3000ft
5 to 8 km
1000 to 3000 ft
1500m to 5 km
500 to 1000 ft
800 to 1500m
200 to 500 ft
< 800m
< 200 ft
Symbols :   Thunderstorms  Fog  Heavy snow  Heavy precipitations  Wind > 20 kt
SIGMETs :     Misc.  Thunderstorms  Icing  Turbulence  Mountain Waves  Volcanic Ashes






- Airport Elevation : 183 ft
- IATA code : HAJ


EDDV - Hanover/Langenhagen Int.

CURRENT METAR :
  • 080950Z AUTO 26007KT 9999 -SHRA BKN009 FEW///TCU 03/02 Q1006 BECMG BKN010

EXPIRED METARs :
  • 080920Z AUTO 27007KT 240V300 9999 -SHRA BKN009 BKN033 FEW///TCU 03/02 Q1006
  • 080850Z AUTO 27007KT 230V300 8000 -RADZ BKN007 03/02 Q1006 TEMPO 4500 SHRASN BKN007CB
  • 080820Z AUTO 26006KT 230V290 7000 -RADZ OVC007 02/02 Q1005 TEMPO 4500 SHRASN BKN006CB
  • 080750Z AUTO 26008KT 9000 -RA BKN007 02/01 Q1005 RESHRA TEMPO 4500 SHRASN BKN007CB
  • 080720Z AUTO 25010KT 9999 SHRA BKN008 BKN016 BKN021 FEW///CB 02/01 Q1005 TEMPO 4500 SHRASN
  • 080650Z AUTO 25011KT 9999 -RADZ BKN010 BKN015 03/01 Q1005 TEMPO 4500 SHRASN BKN008CB

TAF AMD TAF EDDV
Valid from the 08 at 09:00 until the 09 at 06:00 UTC


080928Z 0809/0906 25008KT 9999 BKN015
TEMPO 0809/0811 4000 SHRASN BKN007CB
TEMPO 0811/0812 BKN012
BECMG 0816/0818 23003KT
PROB30
TEMPO 0823/0906 0800 FZFG



MET'MAP, your aeronautical weather chart ! - Copyright ORBIFLY December 2007 - Disclaimer

ORBIFLY MET'MAP TEAM :

Programming & Development : Alexandra Zaïnal
Original concept : Baudouin d'Aumeries
Technical & hardware support : Manuel Goepfert
Assistance : Marc-Olivier Méhu




SOURCES & CREDITS :

   NOAA